sensor_id;sensor_type;location;lat;lon;timestamp;pressure;altitude;pressure_sealevel;temperature;humidity
71107;BME280;58763;47.982;11.516;2023-03-21T00:00:32;94368.13;;;8.07;76.19
71107;BME280;58763;47.982;11.516;2023-03-21T00:02:58;94369.50;;;8.09;76.58
71107;BME280;58763;47.982;11.516;2023-03-21T00:05:23;94353.59;;;8.13;76.20
71107;BME280;58763;47.982;11.516;2023-03-21T00:07:49;94357.09;;;8.08;76.10
71107;BME280;58763;47.982;11.516;2023-03-21T00:10:14;94360.06;;;8.07;76.56
71107;BME280;58763;47.982;11.516;2023-03-21T00:12:40;94356.56;;;8.21;75.53
71107;BME280;58763;47.982;11.516;2023-03-21T00:15:08;94354.75;;;8.27;74.79
71107;BME280;58763;47.982;11.516;2023-03-21T00:17:35;94350.44;;;8.26;75.39
71107;BME280;58763;47.982;11.516;2023-03-21T00:20:02;94348.25;;;8.23;75.21
71107;BME280;58763;47.982;11.516;2023-03-21T00:22:33;94343.38;;;8.15;76.04
71107;BME280;58763;47.982;11.516;2023-03-21T00:25:00;94341.22;;;8.17;76.08
71107;BME280;58763;47.982;11.516;2023-03-21T00:27:26;94336.41;;;8.29;75.78
71107;BME280;58763;47.982;11.516;2023-03-21T00:29:52;94335.63;;;8.33;75.60
71107;BME280;58763;47.982;11.516;2023-03-21T00:32:19;94335.59;;;8.28;75.86
71107;BME280;58763;47.982;11.516;2023-03-21T00:34:46;94326.16;;;8.21;75.93
71107;BME280;58763;47.982;11.516;2023-03-21T00:37:12;94323.50;;;8.26;75.74
71107;BME280;58763;47.982;11.516;2023-03-21T00:39:46;94327.19;;;8.15;76.21
71107;BME280;58763;47.982;11.516;2023-03-21T00:42:15;94314.28;;;8.07;76.38
71107;BME280;58763;47.982;11.516;2023-03-21T00:44:41;94321.81;;;8.10;76.57
71107;BME280;58763;47.982;11.516;2023-03-21T00:47:08;94320.22;;;8.14;76.30
71107;BME280;58763;47.982;11.516;2023-03-21T00:49:35;94323.41;;;8.06;76.46
71107;BME280;58763;47.982;11.516;2023-03-21T00:52:05;94327.22;;;8.05;76.77
71107;BME280;58763;47.982;11.516;2023-03-21T00:54:34;94326.09;;;8.01;76.92
71107;BME280;58763;47.982;11.516;2023-03-21T00:57:01;94316.38;;;7.90;77.29
71107;BME280;58763;47.982;11.516;2023-03-21T00:59:27;94312.31;;;7.82;78.14
71107;BME280;58763;47.982;11.516;2023-03-21T01:01:53;94313.66;;;7.85;78.29
71107;BME280;58763;47.982;11.516;2023-03-21T01:04:20;94309.38;;;7.79;78.36
71107;BME280;58763;47.982;11.516;2023-03-21T01:06:46;94306.88;;;7.62;78.98
71107;BME280;58763;47.982;11.516;2023-03-21T01:09:20;94307.19;;;7.76;78.92
71107;BME280;58763;47.982;11.516;2023-03-21T01:11:47;94300.72;;;7.72;79.11
71107;BME280;58763;47.982;11.516;2023-03-21T01:14:16;94299.38;;;7.69;79.05
71107;BME280;58763;47.982;11.516;2023-03-21T01:16:42;94303.94;;;7.68;79.24
71107;BME280;58763;47.982;11.516;2023-03-21T01:19:11;94295.91;;;7.79;78.88
71107;BME280;58763;47.982;11.516;2023-03-21T01:21:37;94295.88;;;7.68;79.20
71107;BME280;58763;47.982;11.516;2023-03-21T01:24:03;94293.44;;;7.67;78.97
71107;BME280;58763;47.982;11.516;2023-03-21T01:26:29;94288.31;;;7.65;79.77
71107;BME280;58763;47.982;11.516;2023-03-21T01:28:55;94293.44;;;7.62;79.69
71107;BME280;58763;47.982;11.516;2023-03-21T01:31:21;94288.31;;;7.65;79.64
71107;BME280;58763;47.982;11.516;2023-03-21T01:33:47;94289.38;;;7.59;79.78
71107;BME280;58763;47.982;11.516;2023-03-21T01:36:18;94287.81;;;7.79;78.77
71107;BME280;58763;47.982;11.516;2023-03-21T01:38:46;94287.81;;;7.79;78.80
71107;BME280;58763;47.982;11.516;2023-03-21T01:41:35;94284.34;;;7.83;78.89
71107;BME280;58763;47.982;11.516;2023-03-21T01:44:01;94279.47;;;7.80;78.49
71107;BME280;58763;47.982;11.516;2023-03-21T01:49:09;94269.31;;;8.02;77.55
71107;BME280;58763;47.982;11.516;2023-03-21T01:51:41;94267.16;;;8.04;77.47
71107;BME280;58763;47.982;11.516;2023-03-21T01:54:13;94260.97;;;8.09;77.28
71107;BME280;58763;47.982;11.516;2023-03-21T01:56:40;94262.03;;;8.18;77.50
71107;BME280;58763;47.982;11.516;2023-03-21T01:59:11;94257.72;;;8.07;77.15
71107;BME280;58763;47.982;11.516;2023-03-21T02:01:39;94253.16;;;8.02;77.57
71107;BME280;58763;47.982;11.516;2023-03-21T02:04:06;94258.22;;;7.94;77.62
71107;BME280;58763;47.982;11.516;2023-03-21T02:06:38;94253.94;;;8.08;77.39
71107;BME280;58763;47.982;11.516;2023-03-21T02:09:11;94252.34;;;8.07;77.50
71107;BME280;58763;47.982;11.516;2023-03-21T02:11:38;94254.47;;;8.10;77.50
71107;BME280;58763;47.982;11.516;2023-03-21T02:14:04;94248.00;;;8.06;77.48
71107;BME280;58763;47.982;11.516;2023-03-21T02:19:13;94245.31;;;8.06;77.88
71107;BME280;58763;47.982;11.516;2023-03-21T02:24:41;94249.66;;;8.07;77.62
71107;BME280;58763;47.982;11.516;2023-03-21T02:27:20;94260.16;;;8.13;77.20
71107;BME280;58763;47.982;11.516;2023-03-21T02:32:22;94251.56;;;8.37;75.40
71107;BME280;58763;47.982;11.516;2023-03-21T02:37:47;94259.41;;;8.33;75.62
71107;BME280;58763;47.982;11.516;2023-03-21T02:40:44;94259.34;;;8.23;75.74
71107;BME280;58763;47.982;11.516;2023-03-21T02:43:24;94253.47;;;8.26;76.17
71107;BME280;58763;47.982;11.516;2023-03-21T02:45:59;94252.09;;;8.23;75.87
71107;BME280;58763;47.982;11.516;2023-03-21T02:48:33;94253.97;;;8.23;76.21
71107;BME280;58763;47.982;11.516;2023-03-21T02:51:01;94260.19;;;8.33;76.20
71107;BME280;58763;47.982;11.516;2023-03-21T02:53:32;94254.53;;;8.35;75.53
71107;BME280;58763;47.982;11.516;2023-03-21T02:55:59;94256.66;;;8.23;76.33
71107;BME280;58763;47.982;11.516;2023-03-21T02:58:27;94254.47;;;8.10;76.53
71107;BME280;58763;47.982;11.516;2023-03-21T03:00:54;94254.22;;;8.11;76.96
71107;BME280;58763;47.982;11.516;2023-03-21T03:03:21;94252.34;;;8.12;76.62
71107;BME280;58763;47.982;11.516;2023-03-21T03:05:53;94252.34;;;8.12;77.17
71107;BME280;58763;47.982;11.516;2023-03-21T03:13:59;94258.53;;;8.07;76.76
71107;BME280;58763;47.982;11.516;2023-03-21T03:19:15;94251.25;;;8.08;76.69
71107;BME280;58763;47.982;11.516;2023-03-21T03:21:46;94251.28;;;8.23;76.21
71107;BME280;58763;47.982;11.516;2023-03-21T03:24:18;94252.63;;;8.20;76.10
71107;BME280;58763;47.982;11.516;2023-03-21T03:27:07;94253.94;;;8.13;76.42
71107;BME280;58763;47.982;11.516;2023-03-21T03:29:37;94250.72;;;8.21;75.70
71107;BME280;58763;47.982;11.516;2023-03-21T03:32:10;94249.38;;;8.13;75.95
71107;BME280;58763;47.982;11.516;2023-03-21T03:34:42;94253.41;;;8.16;75.78
71107;BME280;58763;47.982;11.516;2023-03-21T03:37:13;94256.91;;;8.11;75.86
71107;BME280;58763;47.982;11.516;2023-03-21T03:39:46;94251.78;;;8.10;76.03
71107;BME280;58763;47.982;11.516;2023-03-21T03:42:23;94245.06;;;8.07;75.94
71107;BME280;58763;47.982;11.516;2023-03-21T03:44:49;94248.84;;;8.11;75.64
71107;BME280;58763;47.982;11.516;2023-03-21T03:47:23;94254.47;;;8.10;75.29
71107;BME280;58763;47.982;11.516;2023-03-21T03:49:59;94243.44;;;8.01;75.91
71107;BME280;58763;47.982;11.516;2023-03-21T03:52:31;94248.00;;;8.01;75.92
71107;BME280;58763;47.982;11.516;2023-03-21T03:54:58;94243.69;;;7.90;75.98
71107;BME280;58763;47.982;11.516;2023-03-21T03:57:25;94237.50;;;7.89;76.28
71107;BME280;58763;47.982;11.516;2023-03-21T03:59:51;94238.56;;;7.73;77.20
71107;BME280;58763;47.982;11.516;2023-03-21T04:02:17;94237.47;;;7.64;78.03
71107;BME280;58763;47.982;11.516;2023-03-21T04:04:44;94241.47;;;7.61;78.01
71107;BME280;58763;47.982;11.516;2023-03-21T04:07:10;94234.47;;;7.50;78.43
71107;BME280;58763;47.982;11.516;2023-03-21T04:09:36;94240.94;;;7.59;78.35
71107;BME280;58763;47.982;11.516;2023-03-21T04:12:01;94240.97;;;7.64;78.01
71107;BME280;58763;47.982;11.516;2023-03-21T04:14:27;94244.16;;;7.61;78.30
71107;BME280;58763;47.982;11.516;2023-03-21T04:16:53;94238.78;;;7.61;78.46
71107;BME280;58763;47.982;11.516;2023-03-21T04:19:19;94238.78;;;7.61;78.51
71107;BME280;58763;47.982;11.516;2023-03-21T04:21:46;94238.53;;;7.63;78.72
71107;BME280;58763;47.982;11.516;2023-03-21T04:24:12;94233.94;;;7.63;78.25
71107;BME280;58763;47.982;11.516;2023-03-21T04:26:39;94236.09;;;7.56;78.78
71107;BME280;58763;47.982;11.516;2023-03-21T04:29:05;94230.19;;;7.59;78.39
71107;BME280;58763;47.982;11.516;2023-03-21T04:31:31;94231.25;;;7.58;78.85
71107;BME280;58763;47.982;11.516;2023-03-21T04:33:59;94234.22;;;7.57;78.44
71107;BME280;58763;47.982;11.516;2023-03-21T04:36:26;94240.13;;;7.54;79.01
71107;BME280;58763;47.982;11.516;2023-03-21T04:38:58;94225.59;;;7.55;78.73
71107;BME280;58763;47.982;11.516;2023-03-21T04:41:28;94228.81;;;7.57;78.67
71107;BME280;58763;47.982;11.516;2023-03-21T04:43:54;94237.47;;;7.69;78.06
71107;BME280;58763;47.982;11.516;2023-03-21T04:46:20;94228.59;;;7.68;77.84
71107;BME280;58763;47.982;11.516;2023-03-21T04:48:46;94233.72;;;7.70;78.08
71107;BME280;58763;47.982;11.516;2023-03-21T04:51:14;94235.53;;;7.54;78.49
71107;BME280;58763;47.982;11.516;2023-03-21T04:53:39;94235.28;;;7.51;78.65
71107;BME280;58763;47.982;11.516;2023-03-21T04:56:09;94233.13;;;7.53;78.22
71107;BME280;58763;47.982;11.516;2023-03-21T04:58:36;94228.78;;;7.47;78.36
71107;BME280;58763;47.982;11.516;2023-03-21T05:01:01;94223.44;;;7.52;78.12
71107;BME280;58763;47.982;11.516;2023-03-21T05:03:27;94223.16;;;7.48;78.22
71107;BME280;58763;47.982;11.516;2023-03-21T05:05:59;94238.19;;;7.34;78.46
71107;BME280;58763;47.982;11.516;2023-03-21T05:08:24;94231.44;;;7.32;78.71
71107;BME280;58763;47.982;11.516;2023-03-21T05:10:51;94230.09;;;7.29;78.69
71107;BME280;58763;47.982;11.516;2023-03-21T05:13:16;94233.06;;;7.28;79.21
71107;BME280;58763;47.982;11.516;2023-03-21T05:15:42;94233.31;;;7.26;79.21
71107;BME280;58763;47.982;11.516;2023-03-21T05:18:09;94227.34;;;7.14;79.71
71107;BME280;58763;47.982;11.516;2023-03-21T05:20:39;94230.28;;;7.13;80.11
71107;BME280;58763;47.982;11.516;2023-03-21T05:23:08;94233.59;;;7.30;79.39
71107;BME280;58763;47.982;11.516;2023-03-21T05:25:36;94231.94;;;7.24;79.49
71107;BME280;58763;47.982;11.516;2023-03-21T05:28:03;94227.34;;;7.19;80.07
71107;BME280;58763;47.982;11.516;2023-03-21T05:30:29;94229.00;;;7.20;79.72
71107;BME280;58763;47.982;11.516;2023-03-21T05:32:55;94228.75;;;7.27;80.03
71107;BME280;58763;47.982;11.516;2023-03-21T05:35:21;94228.69;;;7.17;80.45
71107;BME280;58763;47.982;11.516;2023-03-21T05:37:47;94232.69;;;7.04;81.08
71107;BME280;58763;47.982;11.516;2023-03-21T05:40:13;94230.03;;;7.09;81.27
71107;BME280;58763;47.982;11.516;2023-03-21T05:42:38;94229.50;;;7.17;80.68
71107;BME280;58763;47.982;11.516;2023-03-21T05:45:04;94234.84;;;7.07;80.80
71107;BME280;58763;47.982;11.516;2023-03-21T05:47:30;94225.97;;;7.07;81.30
71107;BME280;58763;47.982;11.516;2023-03-21T05:49:56;94229.22;;;7.09;81.47
71107;BME280;58763;47.982;11.516;2023-03-21T05:52:21;94237.78;;;7.06;81.61
71107;BME280;58763;47.982;11.516;2023-03-21T05:54:47;94237.00;;;7.10;81.90
71107;BME280;58763;47.982;11.516;2023-03-21T05:57:13;94238.13;;;7.19;81.66
71107;BME280;58763;47.982;11.516;2023-03-21T05:59:38;94241.06;;;7.18;81.75
71107;BME280;58763;47.982;11.516;2023-03-21T06:02:04;94241.59;;;7.15;81.65
71107;BME280;58763;47.982;11.516;2023-03-21T06:04:30;94240.28;;;7.22;81.70
71107;BME280;58763;47.982;11.516;2023-03-21T06:06:56;94241.34;;;7.21;81.39
71107;BME280;58763;47.982;11.516;2023-03-21T06:09:22;94242.19;;;7.27;81.60
71107;BME280;58763;47.982;11.516;2023-03-21T06:11:51;94244.09;;;7.31;81.97
71107;BME280;58763;47.982;11.516;2023-03-21T06:14:18;94244.09;;;7.36;80.85
71107;BME280;58763;47.982;11.516;2023-03-21T06:16:45;94244.94;;;7.42;81.07
71107;BME280;58763;47.982;11.516;2023-03-21T06:19:11;94250.59;;;7.50;80.83
71107;BME280;58763;47.982;11.516;2023-03-21T06:21:38;94245.78;;;7.57;80.93
71107;BME280;58763;47.982;11.516;2023-03-21T06:24:03;94242.59;;;7.76;80.50
71107;BME280;58763;47.982;11.516;2023-03-21T06:26:29;94239.09;;;7.80;80.11
71107;BME280;58763;47.982;11.516;2023-03-21T06:28:54;94240.47;;;7.88;79.82
71107;BME280;58763;47.982;11.516;2023-03-21T06:31:25;94241.28;;;7.93;79.65
71107;BME280;58763;47.982;11.516;2023-03-21T06:33:51;94256.38;;;7.99;79.30
71107;BME280;58763;47.982;11.516;2023-03-21T06:36:17;94251.25;;;8.03;79.85
71107;BME280;58763;47.982;11.516;2023-03-21T06:38:44;94256.63;;;8.13;79.64
71107;BME280;58763;47.982;11.516;2023-03-21T06:41:11;94258.81;;;8.21;79.52
71107;BME280;58763;47.982;11.516;2023-03-21T06:43:37;94258.25;;;8.24;79.09
71107;BME280;58763;47.982;11.516;2023-03-21T06:46:02;94257.19;;;8.20;78.94
71107;BME280;58763;47.982;11.516;2023-03-21T06:48:28;94269.03;;;8.24;78.65
71107;BME280;58763;47.982;11.516;2023-03-21T06:50:54;94262.28;;;8.21;79.24
71107;BME280;58763;47.982;11.516;2023-03-21T06:53:22;94260.19;;;8.33;78.42
71107;BME280;58763;47.982;11.516;2023-03-21T06:55:54;94262.63;;;8.30;78.44
71107;BME280;58763;47.982;11.516;2023-03-21T06:58:21;94255.88;;;8.27;78.03
71107;BME280;58763;47.982;11.516;2023-03-21T07:00:47;94261.00;;;8.29;77.69
71107;BME280;58763;47.982;11.516;2023-03-21T07:03:13;94250.22;;;8.34;78.06
71107;BME280;58763;47.982;11.516;2023-03-21T07:05:39;94252.63;;;8.35;77.49
71107;BME280;58763;47.982;11.516;2023-03-21T07:08:06;94252.91;;;8.34;77.78
71107;BME280;58763;47.982;11.516;2023-03-21T07:10:38;94256.69;;;8.43;78.17
71107;BME280;58763;47.982;11.516;2023-03-21T07:13:04;94257.50;;;8.54;77.30
71107;BME280;58763;47.982;11.516;2023-03-21T07:15:30;94263.66;;;8.59;76.54
71107;BME280;58763;47.982;11.516;2023-03-21T07:17:55;94264.22;;;8.56;76.08
71107;BME280;58763;47.982;11.516;2023-03-21T07:20:21;94259.38;;;8.53;76.62
71107;BME280;58763;47.982;11.516;2023-03-21T07:22:47;94253.16;;;8.63;75.67
71107;BME280;58763;47.982;11.516;2023-03-21T07:25:12;94258.28;;;8.59;76.35
71107;BME280;58763;47.982;11.516;2023-03-21T07:27:38;94266.13;;;8.61;76.89
71107;BME280;58763;47.982;11.516;2023-03-21T07:30:05;94263.66;;;8.64;77.07
71107;BME280;58763;47.982;11.516;2023-03-21T07:32:32;94267.44;;;8.68;76.72
71107;BME280;58763;47.982;11.516;2023-03-21T07:34:58;94260.97;;;8.79;75.56
71107;BME280;58763;47.982;11.516;2023-03-21T07:37:24;94266.38;;;8.74;75.55
71107;BME280;58763;47.982;11.516;2023-03-21T07:39:50;94267.13;;;8.85;75.38
71107;BME280;58763;47.982;11.516;2023-03-21T07:42:16;94268.53;;;8.72;76.05
71107;BME280;58763;47.982;11.516;2023-03-21T07:44:42;94269.59;;;8.76;76.00
71107;BME280;58763;47.982;11.516;2023-03-21T07:47:07;94271.19;;;8.87;75.78
71107;BME280;58763;47.982;11.516;2023-03-21T07:49:33;94270.38;;;8.92;75.00
71107;BME280;58763;47.982;11.516;2023-03-21T07:51:59;94269.00;;;8.99;74.43
71107;BME280;58763;47.982;11.516;2023-03-21T07:54:26;94262.50;;;9.11;73.97
71107;BME280;58763;47.982;11.516;2023-03-21T07:56:53;94259.50;;;9.22;73.49
71107;BME280;58763;47.982;11.516;2023-03-21T07:59:20;94263.00;;;9.23;73.74
71107;BME280;58763;47.982;11.516;2023-03-21T08:01:45;94257.88;;;9.26;73.47
71107;BME280;58763;47.982;11.516;2023-03-21T08:04:11;94268.38;;;9.33;72.93
71107;BME280;58763;47.982;11.516;2023-03-21T08:06:36;94263.53;;;9.30;73.45
71107;BME280;58763;47.982;11.516;2023-03-21T08:09:02;94265.69;;;9.28;73.34
71107;BME280;58763;47.982;11.516;2023-03-21T08:11:28;94272.66;;;9.34;73.06
71107;BME280;58763;47.982;11.516;2023-03-21T08:13:57;94268.88;;;9.45;72.17
71107;BME280;58763;47.982;11.516;2023-03-21T08:16:23;94267.47;;;9.52;71.33
71107;BME280;58763;47.982;11.516;2023-03-21T08:18:48;94275.56;;;9.57;71.25
71107;BME280;58763;47.982;11.516;2023-03-21T08:21:14;94273.66;;;9.63;71.02
71107;BME280;58763;47.982;11.516;2023-03-21T08:23:40;94280.38;;;9.70;70.78
71107;BME280;58763;47.982;11.516;2023-03-21T08:26:06;94270.31;;;9.81;70.66
71107;BME280;58763;47.982;11.516;2023-03-21T08:28:32;94272.16;;;9.86;69.78
71107;BME280;58763;47.982;11.516;2023-03-21T08:30:58;94267.81;;;9.90;69.44
71107;BME280;58763;47.982;11.516;2023-03-21T08:33:23;94265.94;;;9.90;68.91
71107;BME280;58763;47.982;11.516;2023-03-21T08:35:49;94263.78;;;9.87;68.78
71107;BME280;58763;47.982;11.516;2023-03-21T08:38:15;94265.69;;;9.92;68.27
71107;BME280;58763;47.982;11.516;2023-03-21T08:40:41;94259.38;;;10.01;67.79
71107;BME280;58763;47.982;11.516;2023-03-21T08:43:06;94256.13;;;10.04;67.83
71107;BME280;58763;47.982;11.516;2023-03-21T08:45:32;94262.53;;;10.18;67.70
71107;BME280;58763;47.982;11.516;2023-03-21T08:47:57;94261.47;;;10.19;68.18
71107;BME280;58763;47.982;11.516;2023-03-21T08:50:25;94258.47;;;10.21;67.61
71107;BME280;58763;47.982;11.516;2023-03-21T08:52:54;94264.13;;;10.24;67.52
71107;BME280;58763;47.982;11.516;2023-03-21T08:55:19;94264.38;;;10.28;66.80
71107;BME280;58763;47.982;11.516;2023-03-21T08:57:45;94252.25;;;10.20;67.61
71107;BME280;58763;47.982;11.516;2023-03-21T09:00:14;94254.59;;;10.32;67.48
71107;BME280;58763;47.982;11.516;2023-03-21T09:02:47;94251.06;;;10.36;67.51
71107;BME280;58763;47.982;11.516;2023-03-21T09:05:13;94252.16;;;10.35;67.33
71107;BME280;58763;47.982;11.516;2023-03-21T09:07:39;94251.88;;;10.37;66.42
71107;BME280;58763;47.982;11.516;2023-03-21T09:10:09;94259.09;;;10.47;66.13
71107;BME280;58763;47.982;11.516;2023-03-21T09:12:35;94251.94;;;10.61;64.98
71107;BME280;58763;47.982;11.516;2023-03-21T09:15:01;94248.66;;;10.69;63.20
71107;BME280;58763;47.982;11.516;2023-03-21T09:17:28;94249.72;;;10.68;63.55
71107;BME280;58763;47.982;11.516;2023-03-21T09:19:54;94238.34;;;10.71;64.01
71107;BME280;58763;47.982;11.516;2023-03-21T09:22:20;94241.28;;;10.74;64.00
71107;BME280;58763;47.982;11.516;2023-03-21T09:24:48;94244.50;;;10.76;64.61
71107;BME280;58763;47.982;11.516;2023-03-21T09:27:15;94242.91;;;10.75;65.16
71107;BME280;58763;47.982;11.516;2023-03-21T09:29:50;94238.69;;;10.88;65.28
71107;BME280;58763;47.982;11.516;2023-03-21T09:32:16;94237.50;;;10.75;63.99
71107;BME280;58763;47.982;11.516;2023-03-21T09:34:43;94234.53;;;10.72;64.97
71107;BME280;58763;47.982;11.516;2023-03-21T09:37:09;94236.25;;;10.91;64.87
71107;BME280;58763;47.982;11.516;2023-03-21T09:39:40;94231.41;;;10.88;64.96
71107;BME280;58763;47.982;11.516;2023-03-21T09:50:01;94242.34;;;11.02;62.40
71107;BME280;58763;47.982;11.516;2023-03-21T09:55:17;94235.50;;;11.09;62.23
71107;BME280;58763;47.982;11.516;2023-03-21T09:57:49;94233.88;;;11.08;62.19
71107;BME280;58763;47.982;11.516;2023-03-21T10:00:27;94237.34;;;11.14;62.29
71107;BME280;58763;47.982;11.516;2023-03-21T10:02:57;94237.50;;;11.23;61.84
71107;BME280;58763;47.982;11.516;2023-03-21T10:05:32;94233.84;;;11.37;61.78
71107;BME280;58763;47.982;11.516;2023-03-21T10:08:13;94230.72;;;11.49;59.62
71107;BME280;58763;47.982;11.516;2023-03-21T10:10:48;94227.13;;;11.53;59.41
71107;BME280;58763;47.982;11.516;2023-03-21T10:13:20;94232.09;;;11.70;59.05
71107;BME280;58763;47.982;11.516;2023-03-21T10:15:47;94230.72;;;11.72;59.32
71107;BME280;58763;47.982;11.516;2023-03-21T10:18:23;94216.16;;;11.87;57.77
71107;BME280;58763;47.982;11.516;2023-03-21T10:20:50;94215.72;;;11.99;58.16
71107;BME280;58763;47.982;11.516;2023-03-21T10:23:18;94216.25;;;12.01;57.20
71107;BME280;58763;47.982;11.516;2023-03-21T10:28:21;94217.13;;;12.15;57.20
71107;BME280;58763;47.982;11.516;2023-03-21T10:30:53;94214.47;;;12.10;57.44
71107;BME280;58763;47.982;11.516;2023-03-21T10:33:27;94212.19;;;12.17;57.91
71107;BME280;58763;47.982;11.516;2023-03-21T10:36:01;94204.94;;;12.31;57.00
71107;BME280;58763;47.982;11.516;2023-03-21T10:38:27;94205.94;;;12.35;55.94
71107;BME280;58763;47.982;11.516;2023-03-21T10:40:53;94202.25;;;12.44;55.74
71107;BME280;58763;47.982;11.516;2023-03-21T10:45:53;94200.44;;;12.72;55.53
71107;BME280;58763;47.982;11.516;2023-03-21T10:48:19;94202.38;;;12.85;54.87
71107;BME280;58763;47.982;11.516;2023-03-21T10:50:48;94199.88;;;12.89;55.52
71107;BME280;58763;47.982;11.516;2023-03-21T10:53:28;94199.47;;;12.95;56.39
71107;BME280;58763;47.982;11.516;2023-03-21T10:55:59;94194.56;;;12.97;55.00
71107;BME280;58763;47.982;11.516;2023-03-21T10:58:30;94195.66;;;12.96;54.79
71107;BME280;58763;47.982;11.516;2023-03-21T11:01:05;94194.25;;;12.85;55.62
71107;BME280;58763;47.982;11.516;2023-03-21T11:03:38;94195.56;;;13.01;55.38
71107;BME280;58763;47.982;11.516;2023-03-21T11:06:22;94191.50;;;13.18;55.17
71107;BME280;58763;47.982;11.516;2023-03-21T11:08:54;94195.34;;;13.30;54.50
71107;BME280;58763;47.982;11.516;2023-03-21T11:11:26;94185.75;;;13.46;54.13
71107;BME280;58763;47.982;11.516;2023-03-21T11:14:00;94185.03;;;13.54;53.40
71107;BME280;58763;47.982;11.516;2023-03-21T11:16:39;94180.41;;;13.55;54.67
71107;BME280;58763;47.982;11.516;2023-03-21T11:19:17;94182.22;;;13.59;53.58
71107;BME280;58763;47.982;11.516;2023-03-21T11:21:43;94177.59;;;13.60;53.31
71107;BME280;58763;47.982;11.516;2023-03-21T11:24:15;94177.75;;;13.77;53.62
71107;BME280;58763;47.982;11.516;2023-03-21T11:26:43;94160.16;;;14.10;53.30
71107;BME280;58763;47.982;11.516;2023-03-21T11:29:39;94157.97;;;14.34;52.18
71107;BME280;58763;47.982;11.516;2023-03-21T11:32:10;94160.19;;;14.54;52.67
71107;BME280;58763;47.982;11.516;2023-03-21T11:34:46;94161.41;;;14.71;51.99
71107;BME280;58763;47.982;11.516;2023-03-21T11:40:31;94158.44;;;14.81;50.99
71107;BME280;58763;47.982;11.516;2023-03-21T11:42:58;94152.00;;;14.77;49.62
71107;BME280;58763;47.982;11.516;2023-03-21T11:45:29;94139.13;;;14.99;49.56
71107;BME280;58763;47.982;11.516;2023-03-21T11:48:00;94136.03;;;15.14;50.09
71107;BME280;58763;47.982;11.516;2023-03-21T11:50:44;94134.56;;;15.17;48.86
71107;BME280;58763;47.982;11.516;2023-03-21T11:53:39;94127.69;;;15.19;48.12
71107;BME280;58763;47.982;11.516;2023-03-21T11:56:25;94127.41;;;15.38;48.47
71107;BME280;58763;47.982;11.516;2023-03-21T12:07:02;94103.97;;;15.76;46.68
71107;BME280;58763;47.982;11.516;2023-03-21T12:09:46;94095.63;;;15.81;46.31
71107;BME280;58763;47.982;11.516;2023-03-21T12:12:37;94096.78;;;15.89;47.32
71107;BME280;58763;47.982;11.516;2023-03-21T12:15:21;94096.56;;;15.51;46.06
71107;BME280;58763;47.982;11.516;2023-03-21T12:23:34;94087.28;;;15.69;45.62
71107;BME280;58763;47.982;11.516;2023-03-21T12:39:35;94083.91;;;16.24;45.22
71107;BME280;58763;47.982;11.516;2023-03-21T12:44:28;94084.34;;;16.43;45.14
71107;BME280;58763;47.982;11.516;2023-03-21T12:47:00;94076.06;;;16.14;43.73
71107;BME280;58763;47.982;11.516;2023-03-21T12:49:45;94065.97;;;15.88;45.09
71107;BME280;58763;47.982;11.516;2023-03-21T12:52:28;94058.56;;;16.06;44.98
71107;BME280;58763;47.982;11.516;2023-03-21T12:55:02;94059.19;;;16.20;43.90
71107;BME280;58763;47.982;11.516;2023-03-21T12:57:40;94057.72;;;16.40;43.37
71107;BME280;58763;47.982;11.516;2023-03-21T13:00:14;94055.16;;;16.52;45.42
71107;BME280;58763;47.982;11.516;2023-03-21T13:05:47;94047.28;;;16.97;44.62
71107;BME280;58763;47.982;11.516;2023-03-21T13:10:44;94037.53;;;17.16;42.62
71107;BME280;58763;47.982;11.516;2023-03-21T13:15:54;94035.59;;;16.88;42.15
71107;BME280;58763;47.982;11.516;2023-03-21T13:21:20;94037.00;;;16.39;43.54
71107;BME280;58763;47.982;11.516;2023-03-21T13:24:03;94029.28;;;16.41;41.66
71107;BME280;58763;47.982;11.516;2023-03-21T13:26:37;94024.13;;;16.48;42.99
71107;BME280;58763;47.982;11.516;2023-03-21T13:29:23;94024.53;;;16.76;42.71
71107;BME280;58763;47.982;11.516;2023-03-21T13:31:52;94024.25;;;17.06;44.21
71107;BME280;58763;47.982;11.516;2023-03-21T13:34:22;94023.88;;;17.16;44.00
71107;BME280;58763;47.982;11.516;2023-03-21T13:36:50;94016.53;;;16.79;41.14
71107;BME280;58763;47.982;11.516;2023-03-21T13:39:19;94016.56;;;16.62;42.04
71107;BME280;58763;47.982;11.516;2023-03-21T13:41:46;94009.94;;;16.80;42.41
71107;BME280;58763;47.982;11.516;2023-03-21T13:44:40;94015.97;;;16.56;42.15
71107;BME280;58763;47.982;11.516;2023-03-21T13:52:42;94016.44;;;16.96;41.56
71107;BME280;58763;47.982;11.516;2023-03-21T13:55:16;94003.63;;;16.88;40.64
71107;BME280;58763;47.982;11.516;2023-03-21T13:57:47;94010.59;;;17.06;42.54
71107;BME280;58763;47.982;11.516;2023-03-21T14:00:29;94004.38;;;17.26;41.97
71107;BME280;58763;47.982;11.516;2023-03-21T14:03:11;94002.41;;;17.06;42.69
71107;BME280;58763;47.982;11.516;2023-03-21T14:05:38;93999.84;;;16.72;42.59
71107;BME280;58763;47.982;11.516;2023-03-21T14:08:06;93999.78;;;16.89;43.28
71107;BME280;58763;47.982;11.516;2023-03-21T14:10:38;94004.06;;;16.99;42.51
71107;BME280;58763;47.982;11.516;2023-03-21T14:13:08;93996.59;;;16.79;43.80
71107;BME280;58763;47.982;11.516;2023-03-21T14:15:41;94005.16;;;16.69;41.89
71107;BME280;58763;47.982;11.516;2023-03-21T14:18:14;93993.56;;;16.25;43.25
71107;BME280;58763;47.982;11.516;2023-03-21T14:20:39;93991.91;;;16.41;44.18
71107;BME280;58763;47.982;11.516;2023-03-21T14:23:09;93998.84;;;16.30;43.18
71107;BME280;58763;47.982;11.516;2023-03-21T14:25:38;93998.56;;;16.15;43.28
71107;BME280;58763;47.982;11.516;2023-03-21T14:28:12;93995.91;;;15.63;41.33
71107;BME280;58763;47.982;11.516;2023-03-21T14:30:40;93981.75;;;15.61;41.97
71107;BME280;58763;47.982;11.516;2023-03-21T14:36:03;93974.84;;;15.38;43.64
71107;BME280;58763;47.982;11.516;2023-03-21T14:38:36;93983.34;;;15.37;42.42